Terminal Aerodrome Forecast
Issued by NWS Hastings, NE

Home | Current Version | Previous Version | Text Only | Print | Product List | Glossary On
Versions: 1 2 3 4 5 6 7 8 9 10 11 12 13 14 15 16 17 18
000
FTUS45 KGID 191345 AAC
TAFEAR
TAF AMD
KEAR 191345Z 1914/2012 15007KT 1/4SM FG OVC002
      TEMPO 1914/1916 1/2SM FG OVC003
     FM191800 17008KT 3SM -DZ BR OVC003
     FM192000 17008KT 6SM -DZ BR OVC007
     FM200200 17005KT 3SM -DZ BR OVC003
     FM200700 16005KT 3/4SM -DZ BR OVC003
      AMD LTD TO CLD VIS AND WIND=

USA.gov is the U.S. government's official web portal to all federal, state and local government web resources and services.